Time;durP1;ratioP1;P1;durP2;ratioP2;P2;SDS_P1;SDS_P2;PMS_P1;PMS_P2;Temp;Humidity;BMP_temperature;BMP_pressure;BME280_temperature;BME280_humidity;BME280_pressure;Samples;Min_cycle;Max_cycle;Signal;HPM_P1;HPM_P2
2022/11/14 00:01:56;;;;;;;64.13;25.73;;;7.00;78.30;;;;;;9160842;19;20111;-64
2022/11/14 00:05:21;;;;;;;59.45;25.17;;;7.00;78.30;;;;;;9163808;19;20023;-64
2022/11/14 00:08:44;;;;;;;64.07;25.83;;;7.00;78.40;;;;;;9160735;19;20042;-65
2022/11/14 00:12:06;;;;;;;60.78;24.65;;;7.00;78.40;;;;;;9164380;19;20015;-64
2022/11/14 00:15:29;;;;;;;62.53;25.80;;;7.00;78.50;;;;;;9170042;19;20471;-64
2022/11/14 00:18:51;;;;;;;68.18;26.15;;;7.10;78.60;;;;;;9168929;19;20014;-65
2022/11/14 00:22:15;;;;;;;64.38;27.50;;;7.00;78.50;;;;;;9166946;19;20431;-62
2022/11/14 00:25:37;;;;;;;66.15;26.63;;;7.00;78.50;;;;;;9168906;19;20058;-66
2022/11/14 00:29:00;;;;;;;65.55;26.70;;;7.10;78.60;;;;;;9164527;19;20027;-63
2022/11/14 00:32:23;;;;;;;65.07;26.33;;;7.10;78.70;;;;;;9164943;19;20070;-68
2022/11/14 00:35:52;;;;;;;63.05;26.10;;;7.10;78.70;;;;;;9164953;19;20022;-64
2022/11/14 00:39:16;;;;;;;65.40;27.58;;;7.10;78.70;;;;;;9168245;19;20023;-64
2022/11/14 00:42:38;;;;;;;70.78;26.63;;;7.10;78.70;;;;;;9165255;19;20261;-66
2022/11/14 00:46:00;;;;;;;68.63;28.17;;;7.10;78.70;;;;;;9166989;19;20081;-66
2022/11/14 00:49:23;;;;;;;70.38;25.75;;;7.10;78.70;;;;;;9164765;19;20103;-67
2022/11/14 00:52:45;;;;;;;70.53;26.88;;;7.10;78.80;;;;;;9167252;19;20025;-67
2022/11/14 00:56:09;;;;;;;67.80;27.75;;;7.10;78.80;;;;;;9165913;19;20022;-67
2022/11/14 00:59:32;;;;;;;69.43;27.88;;;7.10;78.90;;;;;;9165415;19;20027;-65
2022/11/14 01:02:55;;;;;;;67.82;26.70;;;7.10;78.80;;;;;;9165131;19;20015;-64
2022/11/14 01:06:19;;;;;;;63.13;27.77;;;7.10;78.90;;;;;;9167050;19;20011;-68
2022/11/14 01:09:41;;;;;;;73.83;28.17;;;7.10;78.90;;;;;;9172110;19;20018;-64
2022/11/14 01:13:05;;;;;;;63.83;26.40;;;7.00;78.80;;;;;;9174220;19;20484;-64
2022/11/14 01:16:27;;;;;;;73.50;29.20;;;7.00;78.90;;;;;;9171956;19;20031;-63
2022/11/14 01:19:50;;;;;;;71.32;28.85;;;7.00;78.90;;;;;;9172988;19;20029;-64
2022/11/14 01:23:14;;;;;;;61.85;26.45;;;7.00;78.90;;;;;;9173613;19;20531;-69
2022/11/14 01:26:36;;;;;;;68.45;27.55;;;7.00;78.90;;;;;;9175482;19;20022;-63
2022/11/14 01:30:00;;;;;;;69.80;27.52;;;7.00;78.90;;;;;;9171444;19;20019;-64
2022/11/14 01:33:23;;;;;;;79.00;28.23;;;6.90;79.00;;;;;;9171213;19;20015;-65
2022/11/14 01:36:45;;;;;;;62.85;26.05;;;7.00;79.00;;;;;;9173915;19;20010;-64
2022/11/14 01:40:08;;;;;;;73.63;27.92;;;6.90;79.00;;;;;;9169286;19;20010;-65
2022/11/14 01:43:33;;;;;;;49.28;20.27;;;6.90;79.00;;;;;;9172263;19;20019;-63
2022/11/14 01:46:58;;;;;;;69.18;28.85;;;6.90;79.10;;;;;;9172549;19;20018;-65
2022/11/14 01:50:20;;;;;;;;;;;6.90;79.10;;;;;;9172168;19;20014;-63
2022/11/14 01:53:44;;;;;;;69.45;28.75;;;6.80;79.00;;;;;;9166610;19;19934;-64
2022/11/14 01:57:08;;;;;;;65.55;27.52;;;6.80;78.90;;;;;;9175073;19;20361;-63
2022/11/14 02:00:30;;;;;;;71.85;29.70;;;6.80;79.00;;;;;;9171594;19;20037;-64
2022/11/14 02:03:55;;;;;;;66.88;28.17;;;6.80;79.70;;;;;;9172104;19;20341;-63
2022/11/14 02:07:18;;;;;;;63.70;26.15;;;6.70;79.10;;;;;;9172231;19;20015;-65
2022/11/14 02:10:41;;;;;;;71.20;28.98;;;6.70;79.10;;;;;;9172181;19;20022;-65
2022/11/14 02:14:03;;;;;;;69.97;29.80;;;6.70;79.20;;;;;;9170724;19;20019;-65
2022/11/14 02:17:26;;;;;;;69.63;28.77;;;6.70;79.20;;;;;;9173629;19;20022;-65
2022/11/14 02:20:54;;;;;;;63.60;28.27;;;6.70;79.30;;;;;;9169538;19;20018;-64
2022/11/14 02:24:16;;;;;;;65.53;28.05;;;6.70;79.40;;;;;;9171009;19;20022;-63
2022/11/14 02:27:41;;;;;;;67.20;27.98;;;6.60;79.20;;;;;;9170141;19;20023;-65
2022/11/14 02:31:03;;;;;;;61.13;27.52;;;6.60;79.20;;;;;;9172451;19;20022;-65
2022/11/14 02:34:25;;;;;;;69.13;28.40;;;6.60;79.20;;;;;;9169144;19;20020;-66
2022/11/14 02:37:50;;;;;;;67.78;28.88;;;6.60;79.30;;;;;;9170983;19;20022;-65
2022/11/14 02:41:12;;;;;;;65.25;27.80;;;6.60;80.00;;;;;;9172037;19;20030;-65
2022/11/14 02:44:34;;;;;;;64.95;27.27;;;6.60;79.30;;;;;;9171277;19;20022;-66
2022/11/14 02:47:57;;;;;;;66.07;27.63;;;6.50;79.30;;;;;;9169043;19;20064;-65
2022/11/14 02:51:19;;;;;;;64.22;27.88;;;6.50;79.30;;;;;;9169517;19;20027;-65
2022/11/14 02:54:43;;;;;;;62.13;27.45;;;6.50;79.30;;;;;;9161848;19;20368;-67
2022/11/14 02:58:06;;;;;;;65.28;27.98;;;6.50;79.40;;;;;;9171363;19;20025;-67
2022/11/14 03:01:28;;;;;;;60.03;25.88;;;6.40;79.40;;;;;;9168838;19;20018;-67
2022/11/14 03:04:51;;;;;;;59.53;27.65;;;6.40;79.40;;;;;;9168215;19;20018;-65
2022/11/14 03:08:13;;;;;;;65.15;27.83;;;6.40;79.40;;;;;;9172983;19;20014;-65
2022/11/14 03:11:37;;;;;;;59.10;26.15;;;6.40;79.50;;;;;;9169798;19;20362;-64
2022/11/14 03:14:59;;;;;;;64.93;28.30;;;6.30;79.50;;;;;;9168298;19;20081;-64
2022/11/14 03:18:21;;;;;;;61.53;26.92;;;6.30;79.40;;;;;;9170209;19;20025;-64
2022/11/14 03:21:44;;;;;;;62.50;25.13;;;6.30;79.50;;;;;;9167992;19;20494;-66
2022/11/14 03:25:07;;;;;;;65.65;28.08;;;6.30;79.50;;;;;;9169449;19;20018;-64
2022/11/14 03:28:32;;;;;;;56.75;26.20;;;6.20;79.50;;;;;;9167174;19;20022;-62
2022/11/14 03:31:54;;;;;;;65.38;28.08;;;6.20;79.50;;;;;;9167395;19;20014;-64
2022/11/14 03:35:16;;;;;;;61.45;24.58;;;6.20;79.50;;;;;;9171036;19;20018;-64
2022/11/14 03:38:38;;;;;;;61.00;26.80;;;6.20;79.60;;;;;;9169130;19;20475;-66
2022/11/14 03:42:01;;;;;;;69.60;27.58;;;6.20;79.60;;;;;;9166587;19;20022;-66
2022/11/14 03:45:25;;;;;;;60.65;25.77;;;6.20;79.60;;;;;;9169533;19;20014;-64
2022/11/14 03:48:47;;;;;;;61.92;26.83;;;6.20;79.60;;;;;;9168980;19;20563;-66
2022/11/14 03:52:09;;;;;;;58.10;26.13;;;6.10;79.60;;;;;;9167467;19;20018;-64
2022/11/14 03:55:32;;;;;;;59.97;25.42;;;6.10;79.60;;;;;;9161059;19;20018;-66
2022/11/14 03:58:54;;;;;;;62.75;26.80;;;6.10;79.60;;;;;;9169130;19;20926;-65
2022/11/14 04:02:19;;;;;;;62.40;26.25;;;6.10;79.60;;;;;;9166906;19;20015;-64
2022/11/14 04:05:44;;;;;;;62.08;25.83;;;6.10;79.70;;;;;;9169457;19;20106;-66
2022/11/14 04:09:07;;;;;;;62.97;25.70;;;6.10;79.70;;;;;;9165606;19;20019;-62
2022/11/14 04:12:30;;;;;;;63.45;26.98;;;6.00;79.70;;;;;;9165008;19;20019;-64
2022/11/14 04:15:56;;;;;;;58.35;24.92;;;6.00;79.70;;;;;;9169544;19;20022;-66
2022/11/14 04:19:20;;;;;;;58.70;25.55;;;6.00;79.80;;;;;;9169752;19;20471;-64
2022/11/14 04:22:42;;;;;;;54.92;24.35;;;6.00;79.80;;;;;;9167601;19;20029;-64
2022/11/14 04:26:05;;;;;;;61.80;24.92;;;6.00;79.80;;;;;;9168537;19;20031;-63
2022/11/14 04:29:27;;;;;;;64.00;26.83;;;5.90;79.80;;;;;;9164077;19;20014;-64
2022/11/14 04:32:50;;;;;;;54.00;24.75;;;5.90;79.90;;;;;;9165405;19;20054;-68
2022/11/14 04:36:14;;;;;;;63.58;26.92;;;5.90;79.80;;;;;;9166638;19;20022;-64
2022/11/14 04:39:36;;;;;;;61.03;25.08;;;5.80;79.80;;;;;;9165475;19;20026;-65
2022/11/14 04:42:58;;;;;;;63.88;24.92;;;5.80;79.90;;;;;;9168325;19;20026;-66
2022/11/14 04:46:21;;;;;;;60.42;25.13;;;5.80;80.00;;;;;;9176803;19;20353;-66
2022/11/14 04:49:43;;;;;;;64.72;25.40;;;5.80;80.10;;;;;;9172507;19;20046;-63
2022/11/14 04:53:07;;;;;;;61.22;26.10;;;5.80;80.10;;;;;;9171934;19;20030;-63
2022/11/14 04:56:29;;;;;;;59.15;24.88;;;5.80;80.20;;;;;;9175089;19;20030;-64
2022/11/14 04:59:52;;;;;;;56.30;24.85;;;5.80;80.10;;;;;;9175564;19;20022;-66
2022/11/14 05:03:14;;;;;;;64.35;25.73;;;5.80;80.20;;;;;;9174462;19;20018;-64
2022/11/14 05:06:37;;;;;;;61.30;24.95;;;5.80;80.20;;;;;;9175230;19;20028;-67
2022/11/14 05:10:01;;;;;;;54.17;23.02;;;5.80;80.20;;;;;;9172063;19;20019;-64
2022/11/14 05:13:23;;;;;;;65.00;26.15;;;5.80;80.20;;;;;;9172755;19;20082;-67
2022/11/14 05:16:45;;;;;;;65.60;26.30;;;5.80;80.30;;;;;;9176260;19;20024;-65
2022/11/14 05:20:09;;;;;;;63.50;25.77;;;5.80;80.30;;;;;;9175373;19;20019;-62
2022/11/14 05:23:31;;;;;;;60.97;26.50;;;5.80;80.30;;;;;;9171856;19;20472;-64
2022/11/14 05:26:56;;;;;;;62.15;25.55;;;5.80;80.30;;;;;;9172417;19;20046;-62
2022/11/14 05:30:19;;;;;;;58.90;23.92;;;5.80;80.30;;;;;;9172215;19;20023;-65
2022/11/14 05:33:41;;;;;;;64.63;24.65;;;5.80;80.40;;;;;;9171656;19;20015;-65
2022/11/14 05:37:04;;;;;;;60.60;25.10;;;5.80;80.30;;;;;;9172412;19;20015;-63
2022/11/14 05:40:26;;;;;;;53.60;24.58;;;5.80;80.40;;;;;;9173069;19;20022;-65
2022/11/14 05:43:50;;;;;;;60.10;23.58;;;5.80;80.40;;;;;;9174328;19;20010;-65
2022/11/14 05:47:13;;;;;;;60.75;25.50;;;5.80;80.50;;;;;;9174238;19;20070;-64
2022/11/14 05:50:35;;;;;;;56.80;24.60;;;5.80;80.40;;;;;;9171093;19;20010;-64
2022/11/14 05:53:57;;;;;;;58.42;24.35;;;5.80;80.40;;;;;;9165026;19;20801;-64
2022/11/14 05:57:20;;;;;;;64.80;25.17;;;5.80;80.40;;;;;;9174864;19;20021;-63
2022/11/14 06:00:44;;;;;;;59.58;24.60;;;5.70;80.40;;;;;;9171709;19;20490;-63
2022/11/14 06:04:16;;;;;;;66.10;26.98;;;5.80;80.50;;;;;;9170187;19;20022;-65
2022/11/14 06:07:38;;;;;;;55.90;25.30;;;5.80;80.50;;;;;;9173148;19;20026;-68
2022/11/14 06:11:04;;;;;;;64.80;25.40;;;5.80;80.60;;;;;;9173474;19;20470;-66
2022/11/14 06:14:26;;;;;;;56.88;24.60;;;5.80;80.60;;;;;;9173491;19;20037;-67
2022/11/14 06:17:52;;;;;;;59.85;24.15;;;5.80;80.70;;;;;;9172493;19;20018;-65
2022/11/14 06:21:17;;;;;;;60.22;24.20;;;5.80;80.60;;;;;;9177668;19;20014;-65
2022/11/14 06:24:40;;;;;;;59.00;24.55;;;5.80;80.70;;;;;;9181091;19;20368;-66
2022/11/14 06:28:02;;;;;;;60.67;24.75;;;5.80;80.70;;;;;;9180107;19;20025;-63
2022/11/14 06:31:26;;;;;;;58.10;25.02;;;5.70;80.60;;;;;;9180517;19;20037;-63
2022/11/14 06:34:50;;;;;;;56.25;24.27;;;5.70;80.60;;;;;;9180013;19;20018;-63
2022/11/14 06:38:13;;;;;;;61.25;23.40;;;5.70;80.70;;;;;;9179772;19;20018;-64
2022/11/14 06:41:35;;;;;;;58.97;24.58;;;5.70;80.60;;;;;;9180302;19;20043;-63
2022/11/14 06:44:58;;;;;;;57.70;22.95;;;5.70;80.60;;;;;;9177648;19;20098;-66
2022/11/14 06:48:20;;;;;;;54.17;24.08;;;5.70;80.70;;;;;;9176301;19;20094;-68
2022/11/14 06:51:44;;;;;;;63.53;24.65;;;5.70;80.70;;;;;;9179775;19;20049;-64
2022/11/14 06:55:08;;;;;;;54.08;22.00;;;5.70;80.70;;;;;;9173126;19;20014;-64
2022/11/14 06:58:32;;;;;;;55.35;23.95;;;5.70;80.80;;;;;;9177600;19;20519;-63
2022/11/14 07:01:55;;;;;;;56.42;22.33;;;5.70;80.70;;;;;;9178661;19;20089;-64
2022/11/14 07:05:17;;;;;;;56.75;23.55;;;5.70;80.70;;;;;;9174593;19;20045;-68
2022/11/14 07:08:42;;;;;;;55.15;23.17;;;5.70;80.80;;;;;;9175752;19;20021;-66
2022/11/14 07:12:04;;;;;;;;;;;5.70;80.80;;;;;;9169846;19;20098;-66
2022/11/14 07:15:27;;;;;;;53.90;22.65;;;5.70;80.80;;;;;;9172671;19;19926;-63
2022/11/14 07:18:50;;;;;;;56.20;23.02;;;5.70;80.60;;;;;;9169719;19;20348;-64
2022/11/14 07:22:12;;;;;;;55.67;24.33;;;5.70;80.70;;;;;;9159878;19;20018;-65
2022/11/14 07:25:36;;;;;;;54.70;22.77;;;5.70;80.80;;;;;;9160140;19;20029;-66
2022/11/14 07:28:59;;;;;;;;;;;5.70;80.80;;;;;;9161708;19;20704;-65
2022/11/14 07:32:25;;;;;;;45.95;20.88;;;5.70;80.80;;;;;;9163849;19;19914;-66
2022/11/14 07:35:47;;;;;;;50.85;22.27;;;5.70;80.70;;;;;;9157800;19;20018;-66
2022/11/14 07:39:10;;;;;;;57.92;22.50;;;5.70;80.80;;;;;;9164703;19;20014;-66
2022/11/14 07:42:34;;;;;;;58.28;23.60;;;5.70;80.80;;;;;;9163698;19;20026;-65
2022/11/14 07:46:00;;;;;;;51.05;21.45;;;5.70;80.90;;;;;;9165214;19;20335;-64
2022/11/14 07:49:22;;;;;;;49.50;21.58;;;5.70;80.90;;;;;;9170188;19;20109;-63
2022/11/14 07:52:47;;;;;;;48.03;20.85;;;5.70;81.00;;;;;;9178127;19;20014;-63
2022/11/14 07:56:11;;;;;;;49.55;21.55;;;5.70;81.00;;;;;;9177548;19;20014;-65
2022/11/14 07:59:35;;;;;;;56.80;22.33;;;5.70;81.00;;;;;;9177851;19;20018;-67
2022/11/14 08:02:58;;;;;;;49.50;22.52;;;5.70;81.00;;;;;;9178267;19;20014;-64
2022/11/14 08:06:20;;;;;;;50.50;22.25;;;5.70;81.00;;;;;;9177360;19;20106;-63
2022/11/14 08:09:42;;;;;;;51.47;23.00;;;5.70;81.00;;;;;;9175191;19;20010;-63
2022/11/14 08:13:07;;;;;;;54.25;22.13;;;5.70;81.00;;;;;;9175357;19;20522;-65
2022/11/14 08:16:51;;;;;;;55.88;23.75;;;5.70;81.10;;;;;;9177401;19;20047;-65
2022/11/14 08:20:13;;;;;;;53.13;23.02;;;5.70;81.00;;;;;;9176529;19;20090;-63
2022/11/14 08:23:35;;;;;;;51.75;23.20;;;5.80;81.10;;;;;;9176346;19;20014;-63
2022/11/14 08:26:57;;;;;;;52.85;22.23;;;5.80;81.10;;;;;;9176962;19;20018;-65
2022/11/14 08:30:20;;;;;;;48.50;22.27;;;5.80;81.10;;;;;;9173630;19;20019;-63
2022/11/14 08:33:45;;;;;;;58.25;23.88;;;5.80;81.20;;;;;;9175832;19;20022;-64
2022/11/14 08:37:07;;;;;;;56.90;23.40;;;5.80;81.80;;;;;;9176452;19;20819;-63
2022/11/14 08:40:29;;;;;;;48.92;20.58;;;5.90;81.30;;;;;;9173868;19;20048;-66
2022/11/14 08:43:52;;;;;;;50.35;23.67;;;5.90;81.30;;;;;;9176091;19;20018;-66
2022/11/14 08:47:14;;;;;;;52.50;22.80;;;5.90;81.30;;;;;;9176148;19;20456;-63
2022/11/14 08:50:38;;;;;;;49.53;21.75;;;5.90;81.30;;;;;;9170613;19;20025;-63
2022/11/14 08:54:00;;;;;;;;;;;6.00;81.30;;;;;;9170544;19;20018;-62
2022/11/14 08:57:23;;;;;;;52.80;21.70;;;6.00;81.40;;;;;;9175413;19;19926;-64
2022/11/14 09:00:45;;;;;;;50.00;21.42;;;6.00;81.20;;;;;;9172764;19;20030;-64
2022/11/14 09:04:07;;;;;;;51.70;22.00;;;6.00;81.30;;;;;;9175271;19;20391;-65
2022/11/14 09:07:32;;;;;;;57.90;22.75;;;6.10;81.40;;;;;;9173763;19;20480;-63
2022/11/14 09:10:54;;;;;;;47.55;20.80;;;6.10;81.40;;;;;;9171011;19;20707;-64
2022/11/14 09:14:17;;;;;;;47.50;20.50;;;6.10;81.40;;;;;;9161291;19;20011;-63
2022/11/14 09:17:39;;;;;;;49.38;21.58;;;6.20;81.40;;;;;;9169384;19;20015;-63
2022/11/14 09:21:02;;;;;;;49.58;21.60;;;6.20;81.50;;;;;;9171283;19;20464;-65
2022/11/14 09:24:27;;;;;;;49.50;22.20;;;6.20;81.50;;;;;;9170009;19;20015;-66
2022/11/14 09:27:49;;;;;;;48.05;22.15;;;6.30;81.50;;;;;;9169629;19;20515;-67
2022/11/14 09:31:13;;;;;;;48.20;21.80;;;6.30;81.50;;;;;;9171114;19;20026;-64
2022/11/14 09:34:36;;;;;;;;;;;6.40;81.60;;;;;;9177953;19;20085;-63
2022/11/14 09:38:01;;;;;;;54.25;22.48;;;6.40;81.70;;;;;;9175181;19;20293;-64
2022/11/14 09:41:27;;;;;;;57.58;23.17;;;6.50;81.60;;;;;;9178094;19;20491;-65
2022/11/14 09:45:00;;;;;;;53.20;23.33;;;6.60;81.80;;;;;;9176535;19;20467;-64
2022/11/14 09:48:26;;;;;;;53.53;24.10;;;6.70;82.00;;;;;;9169901;19;20014;-65
2022/11/14 09:51:53;;;;;;;52.85;22.92;;;6.90;82.00;;;;;;9165815;19;20026;-65
2022/11/14 09:55:19;;;;;;;51.67;22.42;;;7.10;82.10;;;;;;9166598;19;20046;-64
2022/11/14 09:58:43;;;;;;;46.38;21.05;;;7.20;82.00;;;;;;9173752;19;20022;-65
2022/11/14 10:02:21;;;;;;;42.90;18.88;;;7.40;82.00;;;;;;9173463;19;20642;-63
2022/11/14 10:05:56;;;;;;;44.97;20.40;;;7.60;82.00;;;;;;9172067;19;21034;-64
2022/11/14 10:09:29;;;;;;;;;;;7.70;81.90;;;;;;9171860;19;20027;-64
2022/11/14 10:13:02;;;;;;;39.10;18.52;;;7.90;81.80;;;;;;9173419;19;19919;-64
2022/11/14 10:16:37;;;;;;;38.00;17.80;;;8.00;81.60;;;;;;9174723;19;20014;-66
2022/11/14 10:20:09;;;;;;;34.60;17.40;;;8.10;81.50;;;;;;9172357;19;20502;-63
2022/11/14 10:23:37;;;;;;;37.40;17.83;;;8.30;81.50;;;;;;9178933;19;20014;-66
2022/11/14 10:27:04;;;;;;;33.70;15.63;;;8.40;81.40;;;;;;9170010;19;20022;-63
2022/11/14 10:30:36;;;;;;;36.80;17.27;;;8.40;81.30;;;;;;9170748;19;20527;-63
2022/11/14 10:34:08;;;;;;;34.35;16.88;;;8.50;81.30;;;;;;9172714;19;20014;-66
2022/11/14 10:37:34;;;;;;;35.33;16.20;;;8.60;81.10;;;;;;9172554;19;20136;-66
2022/11/14 10:41:02;;;;;;;33.65;17.65;;;8.60;81.10;;;;;;9168764;19;20086;-63
2022/11/14 10:44:40;;;;;;;33.95;16.45;;;8.70;81.10;;;;;;9169538;19;20490;-66
2022/11/14 10:48:09;;;;;;;43.22;17.02;;;8.80;81.20;;;;;;9170884;19;20038;-68
2022/11/14 10:51:38;;;;;;;34.60;16.95;;;8.90;81.00;;;;;;9173032;19;20618;-64
2022/11/14 10:55:07;;;;;;;35.80;16.15;;;9.00;81.10;;;;;;9164440;19;20015;-65
2022/11/14 10:58:30;;;;;;;31.23;15.45;;;9.10;81.00;;;;;;9169864;19;20023;-65
2022/11/14 11:01:57;;;;;;;30.77;15.23;;;9.10;80.80;;;;;;9172536;19;20480;-66
2022/11/14 11:05:22;;;;;;;30.90;15.32;;;9.20;80.80;;;;;;9169934;19;20041;-64
2022/11/14 11:12:24;;;;;;;32.95;15.73;;;9.40;81.20;;;;;;9171266;19;20049;-64
2022/11/14 11:15:47;;;;;;;28.27;15.27;;;9.40;80.60;;;;;;9167627;19;20404;-66
2022/11/14 11:19:16;;;;;;;33.97;16.80;;;9.50;80.50;;;;;;9170562;19;20025;-66
2022/11/14 11:22:41;;;;;;;29.42;14.77;;;9.60;80.40;;;;;;9169929;19;20011;-65
2022/11/14 11:26:08;;;;;;;30.63;15.13;;;9.60;80.40;;;;;;9170419;19;20022;-69
2022/11/14 11:29:31;;;;;;;27.17;13.65;;;9.70;80.30;;;;;;9168947;19;20750;-65
2022/11/14 11:32:53;;;;;;;30.98;15.82;;;9.70;80.30;;;;;;9170301;19;20026;-66
2022/11/14 11:36:18;;;;;;;29.23;15.20;;;;;;;;;;9170023;19;20507;-66
2022/11/14 11:39:43;;;;;;;29.45;15.90;;;9.70;79.60;;;;;;9169951;19;20013;-67
2022/11/14 11:43:17;;;;;;;29.55;14.48;;;9.70;80.10;;;;;;9168540;19;20018;-63
2022/11/14 11:47:01;;;;;;;30.63;15.38;;;9.80;80.00;;;;;;9168847;19;20434;-68
2022/11/14 11:50:24;;;;;;;26.25;14.05;;;9.80;80.00;;;;;;9169915;19;20469;-66
2022/11/14 11:53:51;;;;;;;25.13;13.95;;;9.80;80.00;;;;;;9161995;19;20023;-64
2022/11/14 11:57:18;;;;;;;29.98;15.15;;;9.70;80.00;;;;;;9170322;19;20102;-65
2022/11/14 12:00:45;;;;;;;28.23;14.30;;;9.70;80.00;;;;;;9169754;19;20015;-69
2022/11/14 12:04:08;;;;;;;25.45;13.43;;;9.80;80.00;;;;;;9175188;19;20010;-65
2022/11/14 12:07:37;;;;;;;27.40;14.88;;;9.80;80.00;;;;;;9176665;19;20302;-65
2022/11/14 12:11:02;;;;;;;27.20;13.60;;;9.80;80.00;;;;;;9171319;19;20014;-67
2022/11/14 12:14:43;;;;;;;26.58;13.35;;;9.80;80.00;;;;;;9176709;19;20014;-67
2022/11/14 12:18:31;;;;;;;29.13;14.25;;;9.80;79.90;;;;;;9174040;19;20015;-68
2022/11/14 12:22:19;;;;;;;25.60;13.35;;;9.80;79.80;;;;;;9175341;19;20106;-67
2022/11/14 12:26:03;;;;;;;24.05;13.15;;;9.80;79.80;;;;;;9174886;19;20025;-68
2022/11/14 12:29:51;;;;;;;23.27;12.95;;;9.80;79.80;;;;;;9175737;19;20030;-67
2022/11/14 12:33:19;;;;;;;24.23;12.85;;;9.80;79.80;;;;;;9175471;19;20453;-68
2022/11/14 12:36:46;;;;;;;24.88;13.70;;;9.80;79.80;;;;;;9174687;19;20015;-67
2022/11/14 12:40:21;;;;;;;24.92;13.48;;;9.80;79.80;;;;;;9175963;19;20031;-66
2022/11/14 12:43:44;;;;;;;27.73;13.10;;;9.90;79.80;;;;;;9176207;19;20426;-68
2022/11/14 12:47:18;;;;;;;25.60;13.60;;;9.80;79.80;;;;;;9161739;19;20039;-67
2022/11/14 12:50:43;;;;;;;27.02;14.55;;;9.90;79.70;;;;;;9161167;19;20472;-68
2022/11/14 12:54:43;;;;;;;26.80;13.90;;;10.00;84.30;;;;;;9157495;19;20022;-69
2022/11/14 12:58:09;;;;;;;29.83;14.25;;;9.90;85.80;;;;;;9164971;19;20026;-68
2022/11/14 13:01:47;;;;;;;25.02;13.70;;;9.90;85.10;;;;;;9163276;19;20014;-67
2022/11/14 13:05:45;;;;;;;25.15;13.77;;;9.90;86.00;;;;;;9166626;19;20027;-69
2022/11/14 13:09:32;;;;;;;24.10;12.95;;;9.90;85.50;;;;;;9171604;19;20536;-68
2022/11/14 13:24:05;;;;;;;20.98;13.50;;;10.10;88.40;;;;;;9171413;19;20018;-67
2022/11/14 13:27:31;;;;;;;22.90;12.52;;;10.00;89.20;;;;;;9173410;19;20019;-67
2022/11/14 13:31:21;;;;;;;22.25;11.80;;;10.10;89.40;;;;;;9169612;19;20035;-65
2022/11/14 13:34:50;;;;;;;19.85;10.85;;;10.10;90.30;;;;;;9174414;19;20111;-66
2022/11/14 13:38:51;;;;;;;17.42;10.32;;;10.10;90.00;;;;;;9174114;19;20015;-68
2022/11/14 13:42:36;;;;;;;15.98;9.55;;;10.10;88.80;;;;;;9171128;19;20334;-66
2022/11/14 13:46:07;;;;;;;17.60;9.77;;;10.10;88.90;;;;;;9176233;19;20415;-69
2022/11/14 13:49:41;;;;;;;14.45;7.88;;;10.10;90.40;;;;;;9174454;19;20019;-65
2022/11/14 13:53:11;;;;;;;18.45;8.90;;;10.20;90.80;;;;;;9166224;19;20032;-67
2022/11/14 13:56:45;;;;;;;15.65;8.38;;;10.10;78.70;;;;;;9171313;19;20022;-68
2022/11/14 14:00:13;;;;;;;18.95;8.80;;;10.10;79.10;;;;;;9172985;19;20055;-70
2022/11/14 14:04:02;;;;;;;18.30;9.30;;;10.20;79.20;;;;;;9173162;19;20046;-67
2022/11/14 14:07:35;;;;;;;18.20;9.18;;;10.20;79.20;;;;;;9171276;19;20022;-67
2022/11/14 14:11:23;;;;;;;19.67;8.98;;;10.20;79.20;;;;;;9167077;19;20368;-68
2022/11/14 14:15:08;;;;;;;15.38;8.07;;;10.20;79.10;;;;;;9171259;19;20015;-68
2022/11/14 14:18:44;;;;;;;15.38;8.23;;;10.20;79.10;;;;;;9173505;19;20018;-68
2022/11/14 14:22:12;;;;;;;18.75;9.05;;;10.30;79.20;;;;;;9172599;19;20504;-67
2022/11/14 14:25:42;;;;;;;15.60;8.90;;;10.30;79.10;;;;;;9174430;19;20018;-67
2022/11/14 14:29:17;;;;;;;16.77;9.13;;;10.30;79.10;;;;;;9171754;19;20014;-68
2022/11/14 14:32:39;;;;;;;15.73;9.43;;;10.30;79.10;;;;;;9175518;19;20034;-69
2022/11/14 14:36:04;;;;;;;15.73;9.23;;;10.30;79.00;;;;;;9172498;19;20050;-68
2022/11/14 14:39:28;;;;;;;19.55;11.35;;;10.30;79.00;;;;;;9168895;19;20019;-69
2022/11/14 14:42:51;;;;;;;13.05;8.65;;;10.30;79.00;;;;;;9167634;19;20023;-68
2022/11/14 14:46:14;;;;;;;17.85;10.07;;;10.40;79.00;;;;;;9165662;19;20023;-67
2022/11/14 14:49:40;;;;;;;20.50;10.63;;;10.40;79.00;;;;;;9170359;19;20082;-67
2022/11/14 14:53:05;;;;;;;18.50;9.80;;;10.40;79.00;;;;;;9166015;19;20059;-69
2022/11/14 14:56:29;;;;;;;18.80;9.75;;;10.40;79.00;;;;;;9168502;19;21348;-68
2022/11/14 14:59:59;;;;;;;;;;;10.40;79.00;;;;;;9174681;19;20026;-67
2022/11/14 15:03:23;;;;;;;19.02;9.32;;;10.40;79.00;;;;;;9172922;19;19939;-67
2022/11/14 15:06:47;;;;;;;17.92;9.05;;;10.40;78.90;;;;;;9174827;19;20034;-69
2022/11/14 15:10:22;;;;;;;;;;;10.40;78.90;;;;;;9172725;19;20022;-69
2022/11/14 15:13:45;;;;;;;18.85;10.40;;;10.40;78.90;;;;;;9169725;19;19942;-67
2022/11/14 15:17:07;;;;;;;17.70;10.02;;;10.50;78.90;;;;;;9165279;19;20034;-70
2022/11/14 15:20:31;;;;;;;16.63;10.38;;;10.40;78.90;;;;;;9170138;19;20682;-67
2022/11/14 15:24:01;;;;;;;19.43;10.57;;;10.40;78.90;;;;;;9171908;19;20026;-67
2022/11/14 15:27:25;;;;;;;19.38;10.40;;;10.40;78.80;;;;;;9168108;19;20046;-68
2022/11/14 15:30:57;;;;;;;;;;;10.40;78.90;;;;;;9169645;19;20463;-67
2022/11/14 15:34:30;;;;;;;17.65;10.13;;;10.50;78.90;;;;;;9168496;19;19918;-68
2022/11/14 15:38:02;;;;;;;18.73;9.55;;;10.50;78.90;;;;;;9167679;19;20364;-69
2022/11/14 15:41:45;;;;;;;17.13;9.63;;;10.50;78.80;;;;;;9172599;19;20634;-69
2022/11/14 15:45:26;;;;;;;17.17;9.68;;;10.50;78.90;;;;;;9175701;19;20029;-67
2022/11/14 15:48:48;;;;;;;17.58;9.38;;;10.50;78.80;;;;;;9177600;19;20014;-68
2022/11/14 15:52:21;;;;;;;17.88;10.75;;;10.50;78.80;;;;;;9178230;19;20023;-68
2022/11/14 15:55:44;;;;;;;20.55;10.50;;;10.50;78.80;;;;;;9169722;19;20036;-65
2022/11/14 15:59:06;;;;;;;18.55;10.27;;;10.50;78.80;;;;;;9174918;19;20018;-66
2022/11/14 16:02:34;;;;;;;22.80;12.18;;;10.50;78.80;;;;;;9175011;19;20043;-65
2022/11/14 16:05:56;;;;;;;21.08;11.48;;;10.50;78.80;;;;;;9174860;19;20023;-69
2022/11/14 16:09:21;;;;;;;22.67;12.75;;;10.50;78.80;;;;;;9175471;19;20093;-67
2022/11/14 16:12:44;;;;;;;20.77;11.77;;;10.50;79.40;;;;;;9177092;19;20028;-68
2022/11/14 16:16:14;;;;;;;20.25;11.15;;;10.50;78.70;;;;;;9176761;19;20405;-68
2022/11/14 16:19:38;;;;;;;24.90;11.68;;;10.50;78.80;;;;;;9176448;19;20014;-65
2022/11/14 16:23:00;;;;;;;23.08;11.98;;;10.40;78.70;;;;;;9176217;19;20014;-67
2022/11/14 16:26:24;;;;;;;20.27;11.63;;;10.50;78.80;;;;;;9175476;19;20014;-67
2022/11/14 16:29:46;;;;;;;23.75;11.45;;;10.40;78.70;;;;;;9174362;19;20033;-66
2022/11/14 16:33:10;;;;;;;21.90;11.77;;;10.40;78.70;;;;;;9175190;19;20026;-68
2022/11/14 16:36:34;;;;;;;24.92;11.38;;;10.40;78.80;;;;;;9174953;19;20022;-68
2022/11/14 16:39:57;;;;;;;25.48;12.57;;;10.40;78.80;;;;;;9181331;19;20017;-68
2022/11/14 16:43:20;;;;;;;21.35;11.15;;;10.40;78.80;;;;;;9184802;19;20035;-67
2022/11/14 16:46:42;;;;;;;24.08;11.88;;;10.40;78.70;;;;;;9183990;19;20014;-67
2022/11/14 16:50:05;;;;;;;26.63;12.45;;;10.40;78.70;;;;;;9183091;19;20093;-66
2022/11/14 16:53:29;;;;;;;20.55;10.98;;;10.40;78.70;;;;;;9177636;19;20026;-68
2022/11/14 16:56:53;;;;;;;24.45;11.82;;;10.40;78.70;;;;;;9182190;19;20010;-69
2022/11/14 17:00:16;;;;;;;22.25;11.27;;;10.40;78.70;;;;;;9181593;19;20015;-67
2022/11/14 17:03:38;;;;;;;18.98;10.57;;;10.40;78.80;;;;;;9184773;19;20086;-68
2022/11/14 17:07:01;;;;;;;37.92;12.77;;;10.40;78.70;;;;;;9183233;19;20039;-67
2022/11/14 17:10:25;;;;;;;65.32;22.63;;;10.40;78.70;;;;;;9180752;19;20106;-68
2022/11/14 17:13:47;;;;;;;48.13;18.80;;;10.40;78.70;;;;;;9182976;19;20030;-68
2022/11/14 17:17:09;;;;;;;26.88;12.13;;;10.40;78.80;;;;;;9181921;19;20869;-68
2022/11/14 17:20:32;;;;;;;24.70;13.23;;;10.40;78.80;;;;;;9180623;19;20025;-67
2022/11/14 17:23:55;;;;;;;25.38;12.32;;;10.40;78.80;;;;;;9182639;19;20357;-68
2022/11/14 17:27:20;;;;;;;20.45;11.90;;;10.40;78.80;;;;;;9182943;19;20014;-66
2022/11/14 17:30:42;;;;;;;;;;;10.30;78.70;;;;;;9178467;19;20022;-68
2022/11/14 17:34:04;;;;;;;23.20;12.55;;;10.40;78.80;;;;;;9182300;19;19921;-67
2022/11/14 17:37:26;;;;;;;18.60;10.93;;;10.40;78.80;;;;;;9182288;19;20018;-67
2022/11/14 17:40:48;;;;;;;20.40;10.95;;;10.30;78.80;;;;;;9183105;19;20043;-67
2022/11/14 17:44:13;;;;;;;26.45;11.80;;;10.30;78.80;;;;;;9182825;19;20449;-67
2022/11/14 17:47:35;;;;;;;21.73;11.88;;;10.30;78.80;;;;;;9176597;19;20495;-68
2022/11/14 17:50:57;;;;;;;21.73;11.57;;;10.30;78.80;;;;;;9174018;19;20018;-67
2022/11/14 17:54:19;;;;;;;25.60;13.35;;;10.30;78.80;;;;;;9169769;19;20026;-68